sensor_id;sensor_type;location;lat;lon;timestamp;P1;durP1;ratioP1;P2;durP2;ratioP2
31872;SDS011;22407;42.820;23.374;2023-05-07T00:01:08;11.70;;;5.97;;
31872;SDS011;22407;42.820;23.374;2023-05-07T00:03:33;13.13;;;5.70;;
31872;SDS011;22407;42.820;23.374;2023-05-07T00:05:59;12.40;;;6.27;;
31872;SDS011;22407;42.820;23.374;2023-05-07T00:08:24;18.58;;;5.85;;
31872;SDS011;22407;42.820;23.374;2023-05-07T00:10:50;15.67;;;6.00;;
31872;SDS011;22407;42.820;23.374;2023-05-07T00:13:15;12.67;;;6.20;;
31872;SDS011;22407;42.820;23.374;2023-05-07T00:15:40;14.50;;;5.93;;
31872;SDS011;22407;42.820;23.374;2023-05-07T00:18:06;12.13;;;6.40;;
31872;SDS011;22407;42.820;23.374;2023-05-07T00:20:31;11.93;;;6.63;;
31872;SDS011;22407;42.820;23.374;2023-05-07T00:22:56;12.47;;;6.20;;
31872;SDS011;22407;42.820;23.374;2023-05-07T00:25:22;10.83;;;5.80;;
31872;SDS011;22407;42.820;23.374;2023-05-07T00:27:47;13.93;;;6.00;;
31872;SDS011;22407;42.820;23.374;2023-05-07T00:30:12;18.77;;;7.00;;
31872;SDS011;22407;42.820;23.374;2023-05-07T00:32:38;29.67;;;8.67;;
31872;SDS011;22407;42.820;23.374;2023-05-07T00:35:03;24.83;;;8.05;;
31872;SDS011;22407;42.820;23.374;2023-05-07T00:37:29;13.90;;;6.43;;
31872;SDS011;22407;42.820;23.374;2023-05-07T00:39:55;12.90;;;5.70;;
31872;SDS011;22407;42.820;23.374;2023-05-07T00:42:20;13.20;;;6.53;;
31872;SDS011;22407;42.820;23.374;2023-05-07T00:44:46;15.07;;;6.43;;
31872;SDS011;22407;42.820;23.374;2023-05-07T00:47:11;12.07;;;5.93;;
31872;SDS011;22407;42.820;23.374;2023-05-07T00:49:38;11.87;;;5.80;;
31872;SDS011;22407;42.820;23.374;2023-05-07T00:52:03;11.27;;;6.10;;
31872;SDS011;22407;42.820;23.374;2023-05-07T00:54:29;12.77;;;6.57;;
31872;SDS011;22407;42.820;23.374;2023-05-07T00:56:54;13.47;;;6.00;;
31872;SDS011;22407;42.820;23.374;2023-05-07T00:59:20;14.18;;;6.32;;
31872;SDS011;22407;42.820;23.374;2023-05-07T01:01:45;13.97;;;7.20;;
31872;SDS011;22407;42.820;23.374;2023-05-07T01:04:10;13.43;;;6.03;;
31872;SDS011;22407;42.820;23.374;2023-05-07T01:06:36;16.67;;;5.83;;
31872;SDS011;22407;42.820;23.374;2023-05-07T01:09:01;17.70;;;6.40;;
31872;SDS011;22407;42.820;23.374;2023-05-07T01:11:26;11.95;;;6.00;;
31872;SDS011;22407;42.820;23.374;2023-05-07T01:13:52;12.20;;;5.70;;
31872;SDS011;22407;42.820;23.374;2023-05-07T01:16:18;12.50;;;6.13;;
31872;SDS011;22407;42.820;23.374;2023-05-07T01:18:43;12.73;;;6.20;;
31872;SDS011;22407;42.820;23.374;2023-05-07T01:21:09;12.97;;;6.07;;
31872;SDS011;22407;42.820;23.374;2023-05-07T01:23:35;23.75;;;7.88;;
31872;SDS011;22407;42.820;23.374;2023-05-07T01:26:01;18.70;;;6.53;;
31872;SDS011;22407;42.820;23.374;2023-05-07T01:28:26;19.10;;;7.53;;
31872;SDS011;22407;42.820;23.374;2023-05-07T01:30:53;17.20;;;7.07;;
31872;SDS011;22407;42.820;23.374;2023-05-07T01:33:19;14.27;;;6.22;;
31872;SDS011;22407;42.820;23.374;2023-05-07T01:35:47;12.80;;;6.38;;
31872;SDS011;22407;42.820;23.374;2023-05-07T01:38:13;14.68;;;6.57;;
31872;SDS011;22407;42.820;23.374;2023-05-07T01:40:39;16.70;;;5.87;;
31872;SDS011;22407;42.820;23.374;2023-05-07T01:43:04;13.30;;;6.77;;
31872;SDS011;22407;42.820;23.374;2023-05-07T01:45:30;14.50;;;6.03;;
31872;SDS011;22407;42.820;23.374;2023-05-07T01:47:56;15.87;;;6.73;;
31872;SDS011;22407;42.820;23.374;2023-05-07T01:50:22;13.02;;;5.90;;
31872;SDS011;22407;42.820;23.374;2023-05-07T01:52:49;14.60;;;6.78;;
31872;SDS011;22407;42.820;23.374;2023-05-07T01:55:15;14.55;;;6.10;;
31872;SDS011;22407;42.820;23.374;2023-05-07T01:57:40;12.47;;;5.80;;
31872;SDS011;22407;42.820;23.374;2023-05-07T02:00:06;13.33;;;5.80;;
31872;SDS011;22407;42.820;23.374;2023-05-07T02:02:31;15.43;;;6.70;;
31872;SDS011;22407;42.820;23.374;2023-05-07T02:04:57;13.97;;;6.57;;
31872;SDS011;22407;42.820;23.374;2023-05-07T02:07:22;14.87;;;7.23;;
31872;SDS011;22407;42.820;23.374;2023-05-07T02:09:48;14.47;;;7.17;;
31872;SDS011;22407;42.820;23.374;2023-05-07T02:12:13;14.70;;;6.90;;
31872;SDS011;22407;42.820;23.374;2023-05-07T02:14:38;14.50;;;7.43;;
31872;SDS011;22407;42.820;23.374;2023-05-07T02:17:04;14.93;;;6.70;;
31872;SDS011;22407;42.820;23.374;2023-05-07T02:19:29;13.93;;;6.47;;
31872;SDS011;22407;42.820;23.374;2023-05-07T02:21:55;15.33;;;7.77;;
31872;SDS011;22407;42.820;23.374;2023-05-07T02:24:20;14.40;;;6.57;;
31872;SDS011;22407;42.820;23.374;2023-05-07T02:26:45;12.60;;;6.00;;
31872;SDS011;22407;42.820;23.374;2023-05-07T02:29:11;13.57;;;6.57;;
31872;SDS011;22407;42.820;23.374;2023-05-07T02:31:36;12.10;;;6.10;;
31872;SDS011;22407;42.820;23.374;2023-05-07T02:34:02;12.70;;;6.57;;
31872;SDS011;22407;42.820;23.374;2023-05-07T02:36:27;15.63;;;7.10;;
31872;SDS011;22407;42.820;23.374;2023-05-07T02:38:52;15.02;;;7.10;;
31872;SDS011;22407;42.820;23.374;2023-05-07T02:41:18;13.47;;;6.90;;
31872;SDS011;22407;42.820;23.374;2023-05-07T02:43:43;14.40;;;7.53;;
31872;SDS011;22407;42.820;23.374;2023-05-07T02:46:08;15.73;;;7.23;;
31872;SDS011;22407;42.820;23.374;2023-05-07T02:48:34;16.55;;;7.07;;
31872;SDS011;22407;42.820;23.374;2023-05-07T02:50:59;14.73;;;7.03;;
31872;SDS011;22407;42.820;23.374;2023-05-07T02:53:25;15.87;;;7.00;;
31872;SDS011;22407;42.820;23.374;2023-05-07T02:55:55;21.17;;;8.35;;
31872;SDS011;22407;42.820;23.374;2023-05-07T02:58:20;21.15;;;8.95;;
31872;SDS011;22407;42.820;23.374;2023-05-07T03:00:46;20.37;;;9.20;;
31872;SDS011;22407;42.820;23.374;2023-05-07T03:03:11;17.73;;;7.50;;
31872;SDS011;22407;42.820;23.374;2023-05-07T03:05:36;17.83;;;8.07;;
31872;SDS011;22407;42.820;23.374;2023-05-07T03:08:02;19.03;;;8.40;;
31872;SDS011;22407;42.820;23.374;2023-05-07T03:10:27;20.70;;;8.98;;
31872;SDS011;22407;42.820;23.374;2023-05-07T03:12:52;17.37;;;8.17;;
31872;SDS011;22407;42.820;23.374;2023-05-07T03:15:18;20.60;;;8.60;;
31872;SDS011;22407;42.820;23.374;2023-05-07T03:17:43;21.33;;;9.20;;
31872;SDS011;22407;42.820;23.374;2023-05-07T03:20:08;17.87;;;8.10;;
31872;SDS011;22407;42.820;23.374;2023-05-07T03:22:34;16.87;;;7.87;;
31872;SDS011;22407;42.820;23.374;2023-05-07T03:24:59;19.53;;;7.93;;
31872;SDS011;22407;42.820;23.374;2023-05-07T03:27:25;17.17;;;8.30;;
31872;SDS011;22407;42.820;23.374;2023-05-07T03:29:50;17.63;;;8.70;;
31872;SDS011;22407;42.820;23.374;2023-05-07T03:32:15;20.33;;;9.30;;
31872;SDS011;22407;42.820;23.374;2023-05-07T03:34:41;20.50;;;9.63;;
31872;SDS011;22407;42.820;23.374;2023-05-07T03:37:06;22.47;;;9.60;;
31872;SDS011;22407;42.820;23.374;2023-05-07T03:39:31;18.30;;;8.67;;
31872;SDS011;22407;42.820;23.374;2023-05-07T03:41:57;19.20;;;8.65;;
31872;SDS011;22407;42.820;23.374;2023-05-07T03:44:22;18.87;;;8.83;;
31872;SDS011;22407;42.820;23.374;2023-05-07T03:46:48;18.67;;;8.97;;
31872;SDS011;22407;42.820;23.374;2023-05-07T03:49:13;21.17;;;9.57;;
31872;SDS011;22407;42.820;23.374;2023-05-07T03:51:38;19.17;;;9.47;;
31872;SDS011;22407;42.820;23.374;2023-05-07T03:54:03;21.60;;;9.23;;
31872;SDS011;22407;42.820;23.374;2023-05-07T03:56:29;22.57;;;9.70;;
31872;SDS011;22407;42.820;23.374;2023-05-07T03:58:56;20.70;;;10.35;;
31872;SDS011;22407;42.820;23.374;2023-05-07T04:01:21;19.93;;;9.33;;
31872;SDS011;22407;42.820;23.374;2023-05-07T04:03:46;21.17;;;9.17;;
31872;SDS011;22407;42.820;23.374;2023-05-07T04:06:11;19.67;;;9.20;;
31872;SDS011;22407;42.820;23.374;2023-05-07T04:08:37;19.37;;;9.27;;
31872;SDS011;22407;42.820;23.374;2023-05-07T04:11:02;27.40;;;13.60;;
31872;SDS011;22407;42.820;23.374;2023-05-07T04:13:28;21.63;;;10.53;;
31872;SDS011;22407;42.820;23.374;2023-05-07T04:15:54;20.90;;;10.70;;
31872;SDS011;22407;42.820;23.374;2023-05-07T04:18:20;19.47;;;9.87;;
31872;SDS011;22407;42.820;23.374;2023-05-07T04:20:46;20.20;;;10.80;;
31872;SDS011;22407;42.820;23.374;2023-05-07T04:23:11;46.97;;;21.00;;
31872;SDS011;22407;42.820;23.374;2023-05-07T04:25:37;35.65;;;16.83;;
31872;SDS011;22407;42.820;23.374;2023-05-07T04:28:02;36.37;;;16.90;;
31872;SDS011;22407;42.820;23.374;2023-05-07T04:30:27;38.10;;;17.40;;
31872;SDS011;22407;42.820;23.374;2023-05-07T04:32:53;35.77;;;17.93;;
31872;SDS011;22407;42.820;23.374;2023-05-07T04:35:18;40.30;;;18.90;;
31872;SDS011;22407;42.820;23.374;2023-05-07T04:37:43;27.90;;;13.70;;
31872;SDS011;22407;42.820;23.374;2023-05-07T04:40:09;31.17;;;14.53;;
31872;SDS011;22407;42.820;23.374;2023-05-07T04:42:35;33.95;;;16.58;;
31872;SDS011;22407;42.820;23.374;2023-05-07T04:45:01;22.02;;;10.90;;
31872;SDS011;22407;42.820;23.374;2023-05-07T04:47:26;21.40;;;10.40;;
31872;SDS011;22407;42.820;23.374;2023-05-07T04:49:52;20.27;;;10.03;;
31872;SDS011;22407;42.820;23.374;2023-05-07T04:52:17;32.17;;;16.37;;
31872;SDS011;22407;42.820;23.374;2023-05-07T04:54:42;30.67;;;15.73;;
31872;SDS011;22407;42.820;23.374;2023-05-07T04:57:07;29.77;;;14.93;;
31872;SDS011;22407;42.820;23.374;2023-05-07T04:59:33;23.98;;;12.05;;
31872;SDS011;22407;42.820;23.374;2023-05-07T05:01:58;23.43;;;12.73;;
31872;SDS011;22407;42.820;23.374;2023-05-07T05:04:23;31.83;;;16.90;;
31872;SDS011;22407;42.820;23.374;2023-05-07T05:06:49;20.33;;;10.37;;
31872;SDS011;22407;42.820;23.374;2023-05-07T05:09:14;30.47;;;14.60;;
31872;SDS011;22407;42.820;23.374;2023-05-07T05:11:40;19.25;;;10.63;;
31872;SDS011;22407;42.820;23.374;2023-05-07T05:14:06;19.43;;;9.93;;
31872;SDS011;22407;42.820;23.374;2023-05-07T05:16:31;21.83;;;10.37;;
31872;SDS011;22407;42.820;23.374;2023-05-07T05:18:56;18.97;;;10.40;;
31872;SDS011;22407;42.820;23.374;2023-05-07T05:21:22;18.97;;;10.63;;
31872;SDS011;22407;42.820;23.374;2023-05-07T05:23:47;18.20;;;9.60;;
31872;SDS011;22407;42.820;23.374;2023-05-07T05:26:12;18.67;;;9.87;;
31872;SDS011;22407;42.820;23.374;2023-05-07T05:28:38;18.87;;;9.10;;
31872;SDS011;22407;42.820;23.374;2023-05-07T05:31:03;17.57;;;9.33;;
31872;SDS011;22407;42.820;23.374;2023-05-07T05:33:28;16.63;;;8.93;;
31872;SDS011;22407;42.820;23.374;2023-05-07T05:35:54;23.77;;;12.98;;
31872;SDS011;22407;42.820;23.374;2023-05-07T05:38:19;18.00;;;9.17;;
31872;SDS011;22407;42.820;23.374;2023-05-07T05:40:45;20.52;;;12.45;;
31872;SDS011;22407;42.820;23.374;2023-05-07T05:43:11;18.80;;;9.47;;
31872;SDS011;22407;42.820;23.374;2023-05-07T05:45:36;15.13;;;8.97;;
31872;SDS011;22407;42.820;23.374;2023-05-07T05:48:01;15.90;;;8.13;;
31872;SDS011;22407;42.820;23.374;2023-05-07T05:50:27;16.10;;;9.20;;
31872;SDS011;22407;42.820;23.374;2023-05-07T05:52:52;16.63;;;9.10;;
31872;SDS011;22407;42.820;23.374;2023-05-07T05:55:17;16.83;;;9.13;;
31872;SDS011;22407;42.820;23.374;2023-05-07T05:57:43;15.80;;;9.70;;
31872;SDS011;22407;42.820;23.374;2023-05-07T06:00:08;15.00;;;7.93;;
31872;SDS011;22407;42.820;23.374;2023-05-07T06:02:34;15.23;;;8.57;;
31872;SDS011;22407;42.820;23.374;2023-05-07T06:04:59;17.13;;;9.67;;
31872;SDS011;22407;42.820;23.374;2023-05-07T06:07:24;15.50;;;8.33;;
31872;SDS011;22407;42.820;23.374;2023-05-07T06:09:50;15.48;;;8.55;;
31872;SDS011;22407;42.820;23.374;2023-05-07T06:12:15;14.80;;;8.50;;
31872;SDS011;22407;42.820;23.374;2023-05-07T06:14:42;17.30;;;9.00;;
31872;SDS011;22407;42.820;23.374;2023-05-07T06:17:07;25.92;;;13.18;;
31872;SDS011;22407;42.820;23.374;2023-05-07T06:19:33;20.37;;;10.67;;
31872;SDS011;22407;42.820;23.374;2023-05-07T06:21:58;19.37;;;9.90;;
31872;SDS011;22407;42.820;23.374;2023-05-07T06:24:23;18.37;;;8.03;;
31872;SDS011;22407;42.820;23.374;2023-05-07T06:26:49;18.27;;;8.18;;
31872;SDS011;22407;42.820;23.374;2023-05-07T06:29:14;15.67;;;7.73;;
31872;SDS011;22407;42.820;23.374;2023-05-07T06:31:40;19.07;;;9.60;;
31872;SDS011;22407;42.820;23.374;2023-05-07T06:34:05;16.53;;;8.40;;
31872;SDS011;22407;42.820;23.374;2023-05-07T06:36:30;15.40;;;8.03;;
31872;SDS011;22407;42.820;23.374;2023-05-07T06:38:56;13.90;;;8.23;;
31872;SDS011;22407;42.820;23.374;2023-05-07T06:41:21;14.77;;;8.40;;
31872;SDS011;22407;42.820;23.374;2023-05-07T06:43:46;12.90;;;7.60;;
31872;SDS011;22407;42.820;23.374;2023-05-07T06:46:12;14.60;;;8.50;;
31872;SDS011;22407;42.820;23.374;2023-05-07T06:48:37;13.90;;;8.30;;
31872;SDS011;22407;42.820;23.374;2023-05-07T06:51:02;13.77;;;7.90;;
31872;SDS011;22407;42.820;23.374;2023-05-07T06:53:28;16.90;;;8.50;;
31872;SDS011;22407;42.820;23.374;2023-05-07T06:55:54;13.93;;;7.68;;
31872;SDS011;22407;42.820;23.374;2023-05-07T06:58:22;33.80;;;19.53;;
31872;SDS011;22407;42.820;23.374;2023-05-07T07:00:55;16.17;;;9.35;;
31872;SDS011;22407;42.820;23.374;2023-05-07T07:03:30;14.80;;;8.10;;
31872;SDS011;22407;42.820;23.374;2023-05-07T07:05:55;17.70;;;8.63;;
31872;SDS011;22407;42.820;23.374;2023-05-07T07:08:21;15.27;;;8.77;;
31872;SDS011;22407;42.820;23.374;2023-05-07T07:10:47;18.48;;;9.82;;
31872;SDS011;22407;42.820;23.374;2023-05-07T07:13:12;13.93;;;7.27;;
31872;SDS011;22407;42.820;23.374;2023-05-07T07:15:38;19.33;;;10.18;;
31872;SDS011;22407;42.820;23.374;2023-05-07T07:18:03;12.23;;;7.53;;
31872;SDS011;22407;42.820;23.374;2023-05-07T07:20:28;14.57;;;8.03;;
31872;SDS011;22407;42.820;23.374;2023-05-07T07:22:54;15.40;;;7.63;;
31872;SDS011;22407;42.820;23.374;2023-05-07T07:25:19;12.53;;;7.40;;
31872;SDS011;22407;42.820;23.374;2023-05-07T07:27:45;12.47;;;6.50;;
31872;SDS011;22407;42.820;23.374;2023-05-07T07:30:10;13.10;;;7.17;;
31872;SDS011;22407;42.820;23.374;2023-05-07T07:32:35;12.95;;;7.10;;
31872;SDS011;22407;42.820;23.374;2023-05-07T07:35:01;11.33;;;6.33;;
31872;SDS011;22407;42.820;23.374;2023-05-07T07:37:27;13.30;;;7.30;;
31872;SDS011;22407;42.820;23.374;2023-05-07T07:39:52;14.02;;;7.32;;
31872;SDS011;22407;42.820;23.374;2023-05-07T07:42:17;12.70;;;7.13;;
31872;SDS011;22407;42.820;23.374;2023-05-07T07:44:43;12.00;;;6.20;;
31872;SDS011;22407;42.820;23.374;2023-05-07T07:47:08;11.90;;;6.50;;
31872;SDS011;22407;42.820;23.374;2023-05-07T07:49:34;12.20;;;6.27;;
31872;SDS011;22407;42.820;23.374;2023-05-07T07:52:00;10.27;;;5.78;;
31872;SDS011;22407;42.820;23.374;2023-05-07T07:54:25;11.30;;;5.83;;
31872;SDS011;22407;42.820;23.374;2023-05-07T07:56:50;11.63;;;6.40;;
31872;SDS011;22407;42.820;23.374;2023-05-07T07:59:16;12.77;;;6.68;;
31872;SDS011;22407;42.820;23.374;2023-05-07T08:01:43;12.27;;;5.87;;
31872;SDS011;22407;42.820;23.374;2023-05-07T08:04:09;10.02;;;5.68;;
31872;SDS011;22407;42.820;23.374;2023-05-07T08:06:34;10.03;;;5.37;;
31872;SDS011;22407;42.820;23.374;2023-05-07T08:08:59;10.77;;;5.40;;
31872;SDS011;22407;42.820;23.374;2023-05-07T08:11:25;9.40;;;5.47;;
31872;SDS011;22407;42.820;23.374;2023-05-07T08:13:50;10.73;;;5.53;;
31872;SDS011;22407;42.820;23.374;2023-05-07T08:16:16;10.30;;;5.87;;
31872;SDS011;22407;42.820;23.374;2023-05-07T08:18:41;17.07;;;7.37;;
31872;SDS011;22407;42.820;23.374;2023-05-07T08:21:06;11.37;;;5.60;;
31872;SDS011;22407;42.820;23.374;2023-05-07T08:23:32;9.17;;;5.20;;
31872;SDS011;22407;42.820;23.374;2023-05-07T08:25:59;8.73;;;5.22;;
31872;SDS011;22407;42.820;23.374;2023-05-07T08:28:24;9.40;;;5.57;;
31872;SDS011;22407;42.820;23.374;2023-05-07T08:30:50;10.25;;;5.28;;
31872;SDS011;22407;42.820;23.374;2023-05-07T08:33:15;9.43;;;4.83;;
31872;SDS011;22407;42.820;23.374;2023-05-07T08:35:41;10.30;;;5.10;;
31872;SDS011;22407;42.820;23.374;2023-05-07T08:38:06;12.03;;;4.97;;
31872;SDS011;22407;42.820;23.374;2023-05-07T08:40:33;11.50;;;5.63;;
31872;SDS011;22407;42.820;23.374;2023-05-07T08:43:01;9.30;;;5.07;;
31872;SDS011;22407;42.820;23.374;2023-05-07T08:45:27;9.40;;;5.13;;
31872;SDS011;22407;42.820;23.374;2023-05-07T08:47:55;11.63;;;5.20;;
31872;SDS011;22407;42.820;23.374;2023-05-07T08:50:23;10.53;;;5.13;;
31872;SDS011;22407;42.820;23.374;2023-05-07T08:52:48;11.02;;;5.30;;
31872;SDS011;22407;42.820;23.374;2023-05-07T08:55:13;10.17;;;5.03;;
31872;SDS011;22407;42.820;23.374;2023-05-07T08:57:40;15.40;;;6.65;;
31872;SDS011;22407;42.820;23.374;2023-05-07T09:00:05;15.30;;;7.53;;
31872;SDS011;22407;42.820;23.374;2023-05-07T09:02:32;12.43;;;5.57;;
31872;SDS011;22407;42.820;23.374;2023-05-07T09:04:57;9.53;;;4.97;;
31872;SDS011;22407;42.820;23.374;2023-05-07T09:07:22;11.00;;;5.20;;
31872;SDS011;22407;42.820;23.374;2023-05-07T09:09:48;11.48;;;5.80;;
31872;SDS011;22407;42.820;23.374;2023-05-07T09:12:14;10.70;;;5.60;;
31872;SDS011;22407;42.820;23.374;2023-05-07T09:14:39;10.50;;;5.97;;
31872;SDS011;22407;42.820;23.374;2023-05-07T09:17:04;9.93;;;5.90;;
31872;SDS011;22407;42.820;23.374;2023-05-07T09:19:30;11.33;;;5.47;;
31872;SDS011;22407;42.820;23.374;2023-05-07T09:22:02;14.40;;;5.47;;
31872;SDS011;22407;42.820;23.374;2023-05-07T09:24:28;8.80;;;4.50;;
31872;SDS011;22407;42.820;23.374;2023-05-07T09:26:57;7.78;;;4.15;;
31872;SDS011;22407;42.820;23.374;2023-05-07T09:29:23;9.88;;;4.80;;
31872;SDS011;22407;42.820;23.374;2023-05-07T09:31:48;10.10;;;4.70;;
31872;SDS011;22407;42.820;23.374;2023-05-07T09:34:13;12.43;;;5.60;;
31872;SDS011;22407;42.820;23.374;2023-05-07T09:36:39;8.33;;;4.20;;
31872;SDS011;22407;42.820;23.374;2023-05-07T09:39:04;8.83;;;4.27;;
31872;SDS011;22407;42.820;23.374;2023-05-07T09:41:29;7.57;;;4.10;;
31872;SDS011;22407;42.820;23.374;2023-05-07T09:43:55;9.85;;;4.47;;
31872;SDS011;22407;42.820;23.374;2023-05-07T09:46:23;10.40;;;4.40;;
31872;SDS011;22407;42.820;23.374;2023-05-07T09:48:50;13.18;;;4.57;;
31872;SDS011;22407;42.820;23.374;2023-05-07T09:53:45;7.75;;;4.00;;
31872;SDS011;22407;42.820;23.374;2023-05-07T09:56:12;10.93;;;4.37;;
31872;SDS011;22407;42.820;23.374;2023-05-07T09:58:38;8.73;;;4.18;;
31872;SDS011;22407;42.820;23.374;2023-05-07T10:01:06;12.32;;;4.43;;
31872;SDS011;22407;42.820;23.374;2023-05-07T10:03:31;8.63;;;4.57;;
31872;SDS011;22407;42.820;23.374;2023-05-07T10:05:58;6.57;;;3.80;;
31872;SDS011;22407;42.820;23.374;2023-05-07T10:08:23;8.55;;;3.72;;
31872;SDS011;22407;42.820;23.374;2023-05-07T10:10:49;20.10;;;6.43;;
31872;SDS011;22407;42.820;23.374;2023-05-07T10:13:14;15.55;;;6.30;;
31872;SDS011;22407;42.820;23.374;2023-05-07T10:15:40;7.10;;;3.60;;
31872;SDS011;22407;42.820;23.374;2023-05-07T10:18:06;6.32;;;3.38;;
31872;SDS011;22407;42.820;23.374;2023-05-07T10:20:32;10.30;;;4.13;;
31872;SDS011;22407;42.820;23.374;2023-05-07T10:22:58;11.52;;;4.07;;
31872;SDS011;22407;42.820;23.374;2023-05-07T10:25:30;11.27;;;4.43;;
31872;SDS011;22407;42.820;23.374;2023-05-07T10:27:57;38.13;;;9.07;;
31872;SDS011;22407;42.820;23.374;2023-05-07T10:30:32;9.68;;;4.18;;
31872;SDS011;22407;42.820;23.374;2023-05-07T10:33:00;19.17;;;5.30;;
31872;SDS011;22407;42.820;23.374;2023-05-07T10:35:31;18.15;;;6.13;;
31872;SDS011;22407;42.820;23.374;2023-05-07T10:37:57;7.70;;;4.40;;
31872;SDS011;22407;42.820;23.374;2023-05-07T10:40:23;6.95;;;3.42;;
31872;SDS011;22407;42.820;23.374;2023-05-07T10:42:58;8.80;;;4.33;;
31872;SDS011;22407;42.820;23.374;2023-05-07T10:45:27;7.32;;;3.63;;
31872;SDS011;22407;42.820;23.374;2023-05-07T10:48:12;8.57;;;4.33;;
31872;SDS011;22407;42.820;23.374;2023-05-07T10:50:38;7.30;;;3.45;;
31872;SDS011;22407;42.820;23.374;2023-05-07T10:55:45;7.57;;;3.75;;
31872;SDS011;22407;42.820;23.374;2023-05-07T10:58:24;7.60;;;4.00;;
31872;SDS011;22407;42.820;23.374;2023-05-07T11:00:59;9.53;;;3.93;;
31872;SDS011;22407;42.820;23.374;2023-05-07T11:03:27;6.63;;;3.58;;
31872;SDS011;22407;42.820;23.374;2023-05-07T11:06:12;7.80;;;4.10;;
31872;SDS011;22407;42.820;23.374;2023-05-07T11:11:12;6.07;;;3.30;;
31872;SDS011;22407;42.820;23.374;2023-05-07T11:13:41;6.07;;;2.93;;
31872;SDS011;22407;42.820;23.374;2023-05-07T11:16:20;7.32;;;3.63;;
31872;SDS011;22407;42.820;23.374;2023-05-07T11:18:46;9.10;;;3.97;;
31872;SDS011;22407;42.820;23.374;2023-05-07T11:21:11;6.97;;;3.28;;
31872;SDS011;22407;42.820;23.374;2023-05-07T11:28:29;6.20;;;3.57;;
31872;SDS011;22407;42.820;23.374;2023-05-07T11:30:55;7.03;;;3.90;;
31872;SDS011;22407;42.820;23.374;2023-05-07T11:33:21;7.93;;;3.90;;
31872;SDS011;22407;42.820;23.374;2023-05-07T11:35:47;6.80;;;3.88;;
31872;SDS011;22407;42.820;23.374;2023-05-07T11:38:12;7.03;;;3.97;;
31872;SDS011;22407;42.820;23.374;2023-05-07T11:40:50;7.33;;;4.20;;
31872;SDS011;22407;42.820;23.374;2023-05-07T11:43:16;6.88;;;3.92;;
31872;SDS011;22407;42.820;23.374;2023-05-07T11:45:41;7.47;;;4.50;;
31872;SDS011;22407;42.820;23.374;2023-05-07T11:48:07;6.97;;;3.93;;
31872;SDS011;22407;42.820;23.374;2023-05-07T11:50:32;7.63;;;4.13;;
31872;SDS011;22407;42.820;23.374;2023-05-07T11:52:57;8.23;;;4.10;;
31872;SDS011;22407;42.820;23.374;2023-05-07T11:55:23;6.90;;;3.80;;
31872;SDS011;22407;42.820;23.374;2023-05-07T11:57:49;6.97;;;3.77;;
31872;SDS011;22407;42.820;23.374;2023-05-07T12:00:15;7.15;;;4.15;;
31872;SDS011;22407;42.820;23.374;2023-05-07T12:02:41;7.53;;;4.40;;
31872;SDS011;22407;42.820;23.374;2023-05-07T12:05:07;7.20;;;4.25;;
31872;SDS011;22407;42.820;23.374;2023-05-07T12:07:35;9.37;;;4.43;;
31872;SDS011;22407;42.820;23.374;2023-05-07T12:10:07;6.80;;;3.50;;
31872;SDS011;22407;42.820;23.374;2023-05-07T12:12:38;6.82;;;3.80;;
31872;SDS011;22407;42.820;23.374;2023-05-07T12:15:03;7.57;;;3.47;;
31872;SDS011;22407;42.820;23.374;2023-05-07T12:17:28;7.97;;;3.90;;
31872;SDS011;22407;42.820;23.374;2023-05-07T12:19:54;7.97;;;3.50;;
31872;SDS011;22407;42.820;23.374;2023-05-07T12:22:19;7.13;;;3.97;;
31872;SDS011;22407;42.820;23.374;2023-05-07T12:24:45;8.10;;;3.90;;
31872;SDS011;22407;42.820;23.374;2023-05-07T12:27:11;9.25;;;3.80;;
31872;SDS011;22407;42.820;23.374;2023-05-07T12:29:36;8.90;;;3.60;;
31872;SDS011;22407;42.820;23.374;2023-05-07T12:32:05;10.13;;;4.38;;
31872;SDS011;22407;42.820;23.374;2023-05-07T12:34:31;8.45;;;4.50;;
31872;SDS011;22407;42.820;23.374;2023-05-07T12:36:56;8.83;;;4.13;;
31872;SDS011;22407;42.820;23.374;2023-05-07T12:39:22;7.83;;;3.70;;
31872;SDS011;22407;42.820;23.374;2023-05-07T12:41:57;6.57;;;3.47;;
31872;SDS011;22407;42.820;23.374;2023-05-07T12:44:29;8.05;;;3.60;;
31872;SDS011;22407;42.820;23.374;2023-05-07T12:46:55;6.78;;;3.50;;
31872;SDS011;22407;42.820;23.374;2023-05-07T12:49:20;8.67;;;3.57;;
31872;SDS011;22407;42.820;23.374;2023-05-07T12:51:49;6.82;;;3.78;;
31872;SDS011;22407;42.820;23.374;2023-05-07T12:54:34;7.53;;;3.73;;
31872;SDS011;22407;42.820;23.374;2023-05-07T12:57:03;6.32;;;3.30;;
31872;SDS011;22407;42.820;23.374;2023-05-07T12:59:39;7.85;;;3.63;;
31872;SDS011;22407;42.820;23.374;2023-05-07T13:02:05;9.75;;;3.42;;
31872;SDS011;22407;42.820;23.374;2023-05-07T13:04:30;9.97;;;4.50;;
31872;SDS011;22407;42.820;23.374;2023-05-07T13:06:55;5.97;;;3.43;;
31872;SDS011;22407;42.820;23.374;2023-05-07T13:09:21;8.03;;;3.80;;
31872;SDS011;22407;42.820;23.374;2023-05-07T13:11:46;7.45;;;4.20;;
31872;SDS011;22407;42.820;23.374;2023-05-07T13:14:12;9.07;;;3.50;;
31872;SDS011;22407;42.820;23.374;2023-05-07T13:16:37;6.60;;;2.97;;
31872;SDS011;22407;42.820;23.374;2023-05-07T13:19:02;12.07;;;3.83;;
31872;SDS011;22407;42.820;23.374;2023-05-07T13:21:27;6.17;;;3.03;;
31872;SDS011;22407;42.820;23.374;2023-05-07T13:23:53;6.78;;;3.20;;
31872;SDS011;22407;42.820;23.374;2023-05-07T13:26:18;7.60;;;3.10;;
31872;SDS011;22407;42.820;23.374;2023-05-07T13:28:44;7.47;;;3.30;;
31872;SDS011;22407;42.820;23.374;2023-05-07T13:31:09;7.47;;;4.10;;
31872;SDS011;22407;42.820;23.374;2023-05-07T13:33:34;7.33;;;2.90;;
31872;SDS011;22407;42.820;23.374;2023-05-07T13:36:00;6.75;;;2.90;;
31872;SDS011;22407;42.820;23.374;2023-05-07T13:38:27;6.00;;;3.10;;
31872;SDS011;22407;42.820;23.374;2023-05-07T13:40:52;7.47;;;3.43;;
31872;SDS011;22407;42.820;23.374;2023-05-07T13:43:18;6.27;;;2.90;;
31872;SDS011;22407;42.820;23.374;2023-05-07T13:45:43;6.53;;;3.13;;
31872;SDS011;22407;42.820;23.374;2023-05-07T13:48:09;6.10;;;3.17;;
31872;SDS011;22407;42.820;23.374;2023-05-07T13:50:35;6.90;;;2.93;;
31872;SDS011;22407;42.820;23.374;2023-05-07T13:53:20;6.05;;;3.00;;
31872;SDS011;22407;42.820;23.374;2023-05-07T13:55:46;6.35;;;3.03;;
31872;SDS011;22407;42.820;23.374;2023-05-07T13:58:11;6.73;;;3.17;;
31872;SDS011;22407;42.820;23.374;2023-05-07T14:00:36;6.37;;;3.13;;
31872;SDS011;22407;42.820;23.374;2023-05-07T14:03:02;7.53;;;3.27;;
31872;SDS011;22407;42.820;23.374;2023-05-07T14:05:27;6.73;;;3.20;;
31872;SDS011;22407;42.820;23.374;2023-05-07T14:07:53;6.93;;;3.20;;
31872;SDS011;22407;42.820;23.374;2023-05-07T14:10:19;6.60;;;3.60;;
31872;SDS011;22407;42.820;23.374;2023-05-07T14:12:44;8.48;;;3.45;;
31872;SDS011;22407;42.820;23.374;2023-05-07T14:15:10;6.20;;;3.30;;
31872;SDS011;22407;42.820;23.374;2023-05-07T14:17:35;7.17;;;3.90;;
31872;SDS011;22407;42.820;23.374;2023-05-07T14:20:01;7.10;;;3.20;;
31872;SDS011;22407;42.820;23.374;2023-05-07T14:22:26;6.23;;;3.10;;
31872;SDS011;22407;42.820;23.374;2023-05-07T14:24:51;6.47;;;3.13;;
31872;SDS011;22407;42.820;23.374;2023-05-07T14:27:17;7.65;;;3.53;;
31872;SDS011;22407;42.820;23.374;2023-05-07T14:29:42;6.53;;;3.63;;